sensor_id;sensor_type;location;lat;lon;timestamp;P1;durP1;ratioP1;P2;durP2;ratioP2
7336;SDS011;54510;42.016;23.098;2022-08-01T00:00:27;7.80;;;7.00;;
7336;SDS011;54510;42.016;23.098;2022-08-01T00:02:53;8.55;;;7.10;;
7336;SDS011;54510;42.016;23.098;2022-08-01T00:05:18;12.50;;;7.30;;
7336;SDS011;54510;42.016;23.098;2022-08-01T00:07:44;7.85;;;6.78;;
7336;SDS011;54510;42.016;23.098;2022-08-01T00:10:12;9.90;;;7.68;;
7336;SDS011;54510;42.016;23.098;2022-08-01T00:12:40;8.35;;;7.18;;
7336;SDS011;54510;42.016;23.098;2022-08-01T00:15:07;9.32;;;7.18;;
7336;SDS011;54510;42.016;23.098;2022-08-01T00:17:35;8.80;;;7.72;;
7336;SDS011;54510;42.016;23.098;2022-08-01T00:20:02;9.63;;;7.40;;
7336;SDS011;54510;42.016;23.098;2022-08-01T00:22:30;8.98;;;7.45;;
7336;SDS011;54510;42.016;23.098;2022-08-01T00:24:56;8.43;;;7.45;;
7336;SDS011;54510;42.016;23.098;2022-08-01T00:27:21;8.20;;;7.40;;
7336;SDS011;54510;42.016;23.098;2022-08-01T00:29:47;8.57;;;7.78;;
7336;SDS011;54510;42.016;23.098;2022-08-01T00:32:12;8.35;;;7.50;;
7336;SDS011;54510;42.016;23.098;2022-08-01T00:34:37;9.75;;;8.68;;
7336;SDS011;54510;42.016;23.098;2022-08-01T00:37:03;9.98;;;7.38;;
7336;SDS011;54510;42.016;23.098;2022-08-01T00:39:28;8.75;;;7.47;;
7336;SDS011;54510;42.016;23.098;2022-08-01T00:41:54;9.30;;;8.40;;
7336;SDS011;54510;42.016;23.098;2022-08-01T00:44:19;10.45;;;8.30;;
7336;SDS011;54510;42.016;23.098;2022-08-01T00:46:45;8.32;;;7.53;;
7336;SDS011;54510;42.016;23.098;2022-08-01T00:49:10;8.98;;;8.07;;
7336;SDS011;54510;42.016;23.098;2022-08-01T00:51:35;8.60;;;7.70;;
7336;SDS011;54510;42.016;23.098;2022-08-01T00:54:01;9.85;;;8.85;;
7336;SDS011;54510;42.016;23.098;2022-08-01T00:56:26;11.48;;;7.78;;
7336;SDS011;54510;42.016;23.098;2022-08-01T00:58:54;8.40;;;7.57;;
7336;SDS011;54510;42.016;23.098;2022-08-01T01:01:20;9.20;;;7.55;;
7336;SDS011;54510;42.016;23.098;2022-08-01T01:03:47;9.15;;;7.97;;
7336;SDS011;54510;42.016;23.098;2022-08-01T01:06:18;9.15;;;8.25;;
7336;SDS011;54510;42.016;23.098;2022-08-01T01:15:07;8.55;;;7.07;;
7336;SDS011;54510;42.016;23.098;2022-08-01T01:17:45;9.48;;;7.63;;
7336;SDS011;54510;42.016;23.098;2022-08-01T01:20:15;8.63;;;7.78;;
7336;SDS011;54510;42.016;23.098;2022-08-01T01:30:55;10.85;;;8.13;;
7336;SDS011;54510;42.016;23.098;2022-08-01T01:33:22;9.20;;;8.25;;
7336;SDS011;54510;42.016;23.098;2022-08-01T01:35:51;8.77;;;7.97;;
7336;SDS011;54510;42.016;23.098;2022-08-01T01:38:21;8.63;;;7.82;;
7336;SDS011;54510;42.016;23.098;2022-08-01T01:40:51;9.13;;;8.27;;
7336;SDS011;54510;42.016;23.098;2022-08-01T01:43:18;8.90;;;8.00;;
7336;SDS011;54510;42.016;23.098;2022-08-01T01:45:45;8.70;;;8.00;;
7336;SDS011;54510;42.016;23.098;2022-08-01T01:48:13;9.10;;;8.20;;
7336;SDS011;54510;42.016;23.098;2022-08-01T01:50:45;8.93;;;8.00;;
7336;SDS011;54510;42.016;23.098;2022-08-01T01:53:12;11.68;;;8.70;;
7336;SDS011;54510;42.016;23.098;2022-08-01T01:55:40;15.23;;;9.27;;
7336;SDS011;54510;42.016;23.098;2022-08-01T01:58:08;9.95;;;8.98;;
7336;SDS011;54510;42.016;23.098;2022-08-01T02:00:38;9.98;;;8.45;;
7336;SDS011;54510;42.016;23.098;2022-08-01T02:03:06;11.55;;;8.85;;
7336;SDS011;54510;42.016;23.098;2022-08-01T02:05:35;9.25;;;7.78;;
7336;SDS011;54510;42.016;23.098;2022-08-01T02:08:02;9.13;;;8.25;;
7336;SDS011;54510;42.016;23.098;2022-08-01T02:10:30;10.48;;;8.75;;
7336;SDS011;54510;42.016;23.098;2022-08-01T02:12:59;10.27;;;8.82;;
7336;SDS011;54510;42.016;23.098;2022-08-01T02:15:28;9.60;;;8.55;;
7336;SDS011;54510;42.016;23.098;2022-08-01T02:17:55;12.75;;;8.55;;
7336;SDS011;54510;42.016;23.098;2022-08-01T02:20:22;8.52;;;7.72;;
7336;SDS011;54510;42.016;23.098;2022-08-01T02:22:50;10.65;;;8.75;;
7336;SDS011;54510;42.016;23.098;2022-08-01T02:25:25;9.45;;;8.45;;
7336;SDS011;54510;42.016;23.098;2022-08-01T02:30:33;8.63;;;7.82;;
7336;SDS011;54510;42.016;23.098;2022-08-01T02:33:22;9.30;;;8.45;;
7336;SDS011;54510;42.016;23.098;2022-08-01T02:35:49;8.85;;;8.05;;
7336;SDS011;54510;42.016;23.098;2022-08-01T02:38:18;12.05;;;8.57;;
7336;SDS011;54510;42.016;23.098;2022-08-01T02:40:47;10.15;;;9.13;;
7336;SDS011;54510;42.016;23.098;2022-08-01T02:43:16;11.88;;;8.43;;
7336;SDS011;54510;42.016;23.098;2022-08-01T02:45:47;9.23;;;8.20;;
7336;SDS011;54510;42.016;23.098;2022-08-01T02:48:15;9.02;;;8.13;;
7336;SDS011;54510;42.016;23.098;2022-08-01T02:50:44;9.70;;;8.38;;
7336;SDS011;54510;42.016;23.098;2022-08-01T02:53:13;12.30;;;8.45;;
7336;SDS011;54510;42.016;23.098;2022-08-01T02:55:42;9.27;;;8.35;;
7336;SDS011;54510;42.016;23.098;2022-08-01T02:58:12;11.18;;;8.23;;
7336;SDS011;54510;42.016;23.098;2022-08-01T03:00:40;9.45;;;8.48;;
7336;SDS011;54510;42.016;23.098;2022-08-01T03:03:07;9.93;;;8.55;;
7336;SDS011;54510;42.016;23.098;2022-08-01T03:05:34;11.48;;;8.50;;
7336;SDS011;54510;42.016;23.098;2022-08-01T03:08:01;10.60;;;8.70;;
7336;SDS011;54510;42.016;23.098;2022-08-01T03:10:28;9.80;;;7.90;;
7336;SDS011;54510;42.016;23.098;2022-08-01T03:12:55;9.38;;;8.40;;
7336;SDS011;54510;42.016;23.098;2022-08-01T03:15:24;9.60;;;8.50;;
7336;SDS011;54510;42.016;23.098;2022-08-01T03:17:51;13.23;;;8.15;;
7336;SDS011;54510;42.016;23.098;2022-08-01T03:20:19;9.50;;;8.55;;
7336;SDS011;54510;42.016;23.098;2022-08-01T03:22:48;8.50;;;7.57;;
7336;SDS011;54510;42.016;23.098;2022-08-01T03:25:17;10.57;;;8.30;;
7336;SDS011;54510;42.016;23.098;2022-08-01T03:27:43;9.63;;;8.15;;
7336;SDS011;54510;42.016;23.098;2022-08-01T03:30:12;9.48;;;8.55;;
7336;SDS011;54510;42.016;23.098;2022-08-01T03:32:38;8.25;;;7.45;;
7336;SDS011;54510;42.016;23.098;2022-08-01T03:35:04;9.23;;;8.23;;
7336;SDS011;54510;42.016;23.098;2022-08-01T03:37:37;10.45;;;9.35;;
7336;SDS011;54510;42.016;23.098;2022-08-01T03:40:25;10.20;;;7.65;;
7336;SDS011;54510;42.016;23.098;2022-08-01T03:43:01;11.80;;;8.98;;
7336;SDS011;54510;42.016;23.098;2022-08-01T03:45:30;11.10;;;8.80;;
7336;SDS011;54510;42.016;23.098;2022-08-01T03:48:07;11.45;;;8.77;;
7336;SDS011;54510;42.016;23.098;2022-08-01T03:50:35;10.02;;;8.75;;
7336;SDS011;54510;42.016;23.098;2022-08-01T03:53:04;9.57;;;8.57;;
7336;SDS011;54510;42.016;23.098;2022-08-01T03:55:32;11.85;;;8.88;;
7336;SDS011;54510;42.016;23.098;2022-08-01T03:58:00;8.82;;;7.90;;
7336;SDS011;54510;42.016;23.098;2022-08-01T04:00:27;8.52;;;7.53;;
7336;SDS011;54510;42.016;23.098;2022-08-01T04:02:53;8.80;;;8.00;;
7336;SDS011;54510;42.016;23.098;2022-08-01T04:05:20;9.00;;;8.10;;
7336;SDS011;54510;42.016;23.098;2022-08-01T04:07:46;9.85;;;7.85;;
7336;SDS011;54510;42.016;23.098;2022-08-01T04:10:13;8.95;;;7.38;;
7336;SDS011;54510;42.016;23.098;2022-08-01T04:12:38;10.38;;;8.32;;
7336;SDS011;54510;42.016;23.098;2022-08-01T04:15:04;9.50;;;8.38;;
7336;SDS011;54510;42.016;23.098;2022-08-01T04:17:30;12.15;;;8.75;;
7336;SDS011;54510;42.016;23.098;2022-08-01T04:19:56;9.77;;;8.77;;
7336;SDS011;54510;42.016;23.098;2022-08-01T04:22:22;10.25;;;7.70;;
7336;SDS011;54510;42.016;23.098;2022-08-01T04:24:48;10.45;;;8.48;;
7336;SDS011;54510;42.016;23.098;2022-08-01T04:27:18;12.50;;;7.93;;
7336;SDS011;54510;42.016;23.098;2022-08-01T04:29:53;11.35;;;8.98;;
7336;SDS011;54510;42.016;23.098;2022-08-01T04:32:22;11.73;;;9.02;;
7336;SDS011;54510;42.016;23.098;2022-08-01T04:34:49;9.98;;;8.07;;
7336;SDS011;54510;42.016;23.098;2022-08-01T04:37:16;11.63;;;7.88;;
7336;SDS011;54510;42.016;23.098;2022-08-01T04:39:42;10.18;;;8.15;;
7336;SDS011;54510;42.016;23.098;2022-08-01T04:42:11;13.98;;;8.40;;
7336;SDS011;54510;42.016;23.098;2022-08-01T04:44:38;15.60;;;12.40;;
7336;SDS011;54510;42.016;23.098;2022-08-01T04:47:04;16.90;;;13.93;;
7336;SDS011;54510;42.016;23.098;2022-08-01T04:49:32;15.30;;;11.70;;
7336;SDS011;54510;42.016;23.098;2022-08-01T04:52:01;13.73;;;8.30;;
7336;SDS011;54510;42.016;23.098;2022-08-01T04:54:27;9.68;;;7.05;;
7336;SDS011;54510;42.016;23.098;2022-08-01T04:56:54;11.27;;;7.45;;
7336;SDS011;54510;42.016;23.098;2022-08-01T04:59:28;8.52;;;7.60;;
7336;SDS011;54510;42.016;23.098;2022-08-01T05:02:10;8.35;;;7.55;;
7336;SDS011;54510;42.016;23.098;2022-08-01T05:04:38;12.38;;;7.82;;
7336;SDS011;54510;42.016;23.098;2022-08-01T05:07:05;14.90;;;8.07;;
7336;SDS011;54510;42.016;23.098;2022-08-01T05:09:32;10.63;;;8.23;;
7336;SDS011;54510;42.016;23.098;2022-08-01T05:11:58;14.75;;;7.80;;
7336;SDS011;54510;42.016;23.098;2022-08-01T05:14:25;13.98;;;8.82;;
7336;SDS011;54510;42.016;23.098;2022-08-01T05:16:51;14.30;;;8.23;;
7336;SDS011;54510;42.016;23.098;2022-08-01T05:19:17;12.60;;;8.27;;
7336;SDS011;54510;42.016;23.098;2022-08-01T05:21:43;15.35;;;7.82;;
7336;SDS011;54510;42.016;23.098;2022-08-01T05:24:09;12.05;;;8.35;;
7336;SDS011;54510;42.016;23.098;2022-08-01T05:26:34;12.68;;;8.07;;
7336;SDS011;54510;42.016;23.098;2022-08-01T05:29:00;14.13;;;8.57;;
7336;SDS011;54510;42.016;23.098;2022-08-01T05:31:25;12.38;;;8.88;;
7336;SDS011;54510;42.016;23.098;2022-08-01T05:33:51;11.68;;;9.25;;
7336;SDS011;54510;42.016;23.098;2022-08-01T05:36:16;15.35;;;9.32;;
7336;SDS011;54510;42.016;23.098;2022-08-01T05:38:42;12.32;;;8.55;;
7336;SDS011;54510;42.016;23.098;2022-08-01T05:41:07;11.38;;;9.30;;
7336;SDS011;54510;42.016;23.098;2022-08-01T05:43:33;15.73;;;8.93;;
7336;SDS011;54510;42.016;23.098;2022-08-01T05:45:58;13.57;;;7.50;;
7336;SDS011;54510;42.016;23.098;2022-08-01T05:48:24;16.23;;;7.68;;
7336;SDS011;54510;42.016;23.098;2022-08-01T05:50:49;14.77;;;7.82;;
7336;SDS011;54510;42.016;23.098;2022-08-01T05:53:15;15.45;;;8.23;;
7336;SDS011;54510;42.016;23.098;2022-08-01T05:55:41;15.48;;;7.65;;
7336;SDS011;54510;42.016;23.098;2022-08-01T05:58:06;13.40;;;7.22;;
7336;SDS011;54510;42.016;23.098;2022-08-01T06:00:32;13.70;;;7.30;;
7336;SDS011;54510;42.016;23.098;2022-08-01T06:02:57;11.35;;;8.00;;
7336;SDS011;54510;42.016;23.098;2022-08-01T06:05:22;10.20;;;7.65;;
7336;SDS011;54510;42.016;23.098;2022-08-01T06:07:48;11.43;;;7.15;;
7336;SDS011;54510;42.016;23.098;2022-08-01T06:10:13;13.70;;;7.55;;
7336;SDS011;54510;42.016;23.098;2022-08-01T06:12:39;14.25;;;7.30;;
7336;SDS011;54510;42.016;23.098;2022-08-01T06:15:05;11.80;;;8.00;;
7336;SDS011;54510;42.016;23.098;2022-08-01T06:17:31;23.10;;;8.32;;
7336;SDS011;54510;42.016;23.098;2022-08-01T06:19:56;11.70;;;7.45;;
7336;SDS011;54510;42.016;23.098;2022-08-01T06:22:22;11.60;;;6.68;;
7336;SDS011;54510;42.016;23.098;2022-08-01T06:24:47;11.95;;;6.20;;
7336;SDS011;54510;42.016;23.098;2022-08-01T06:27:13;10.52;;;6.90;;
7336;SDS011;54510;42.016;23.098;2022-08-01T06:29:38;8.38;;;6.68;;
7336;SDS011;54510;42.016;23.098;2022-08-01T06:32:04;14.80;;;6.95;;
7336;SDS011;54510;42.016;23.098;2022-08-01T06:34:29;11.32;;;6.40;;
7336;SDS011;54510;42.016;23.098;2022-08-01T06:36:55;12.68;;;6.45;;
7336;SDS011;54510;42.016;23.098;2022-08-01T06:39:20;10.18;;;5.88;;
7336;SDS011;54510;42.016;23.098;2022-08-01T06:41:46;11.55;;;5.68;;
7336;SDS011;54510;42.016;23.098;2022-08-01T06:44:12;6.47;;;4.72;;
7336;SDS011;54510;42.016;23.098;2022-08-01T06:46:38;8.95;;;5.65;;
7336;SDS011;54510;42.016;23.098;2022-08-01T06:49:03;14.48;;;6.03;;
7336;SDS011;54510;42.016;23.098;2022-08-01T06:51:29;8.48;;;5.38;;
7336;SDS011;54510;42.016;23.098;2022-08-01T06:53:54;8.48;;;5.53;;
7336;SDS011;54510;42.016;23.098;2022-08-01T06:56:20;8.15;;;4.82;;
7336;SDS011;54510;42.016;23.098;2022-08-01T06:58:45;8.70;;;5.88;;
7336;SDS011;54510;42.016;23.098;2022-08-01T07:01:11;5.28;;;3.60;;
7336;SDS011;54510;42.016;23.098;2022-08-01T07:03:36;4.85;;;3.53;;
7336;SDS011;54510;42.016;23.098;2022-08-01T07:06:02;6.60;;;3.80;;
7336;SDS011;54510;42.016;23.098;2022-08-01T07:08:28;5.97;;;3.42;;
7336;SDS011;54510;42.016;23.098;2022-08-01T07:10:54;5.25;;;3.05;;
7336;SDS011;54510;42.016;23.098;2022-08-01T07:13:20;11.23;;;4.70;;
7336;SDS011;54510;42.016;23.098;2022-08-01T07:15:49;4.15;;;2.72;;
7336;SDS011;54510;42.016;23.098;2022-08-01T07:18:15;3.88;;;3.05;;
7336;SDS011;54510;42.016;23.098;2022-08-01T07:20:40;8.68;;;3.28;;
7336;SDS011;54510;42.016;23.098;2022-08-01T07:23:06;4.93;;;3.20;;
7336;SDS011;54510;42.016;23.098;2022-08-01T07:25:31;3.17;;;2.65;;
7336;SDS011;54510;42.016;23.098;2022-08-01T07:27:57;5.88;;;2.60;;
7336;SDS011;54510;42.016;23.098;2022-08-01T07:30:22;8.43;;;2.38;;
7336;SDS011;54510;42.016;23.098;2022-08-01T07:32:47;4.60;;;3.22;;
7336;SDS011;54510;42.016;23.098;2022-08-01T07:35:13;4.20;;;3.00;;
7336;SDS011;54510;42.016;23.098;2022-08-01T07:37:38;4.70;;;3.42;;
7336;SDS011;54510;42.016;23.098;2022-08-01T07:40:04;7.85;;;3.30;;
7336;SDS011;54510;42.016;23.098;2022-08-01T07:42:30;8.60;;;3.80;;
7336;SDS011;54510;42.016;23.098;2022-08-01T07:44:56;7.50;;;2.92;;
7336;SDS011;54510;42.016;23.098;2022-08-01T07:47:25;6.20;;;3.17;;
7336;SDS011;54510;42.016;23.098;2022-08-01T07:49:51;4.07;;;2.47;;
7336;SDS011;54510;42.016;23.098;2022-08-01T07:52:17;3.85;;;2.28;;
7336;SDS011;54510;42.016;23.098;2022-08-01T07:54:43;8.73;;;2.63;;
7336;SDS011;54510;42.016;23.098;2022-08-01T07:57:09;7.55;;;2.78;;
7336;SDS011;54510;42.016;23.098;2022-08-01T07:59:34;4.93;;;2.08;;
7336;SDS011;54510;42.016;23.098;2022-08-01T08:02:00;5.15;;;2.25;;
7336;SDS011;54510;42.016;23.098;2022-08-01T08:04:26;4.13;;;2.35;;
7336;SDS011;54510;42.016;23.098;2022-08-01T08:06:52;3.55;;;1.98;;
7336;SDS011;54510;42.016;23.098;2022-08-01T08:09:18;4.93;;;1.88;;
7336;SDS011;54510;42.016;23.098;2022-08-01T08:11:44;4.95;;;2.88;;
7336;SDS011;54510;42.016;23.098;2022-08-01T08:14:10;3.92;;;2.08;;
7336;SDS011;54510;42.016;23.098;2022-08-01T08:16:36;4.97;;;2.20;;
7336;SDS011;54510;42.016;23.098;2022-08-01T08:19:01;5.35;;;2.63;;
7336;SDS011;54510;42.016;23.098;2022-08-01T08:21:26;8.57;;;2.72;;
7336;SDS011;54510;42.016;23.098;2022-08-01T08:23:53;3.75;;;2.53;;
7336;SDS011;54510;42.016;23.098;2022-08-01T08:26:37;6.22;;;2.45;;
7336;SDS011;54510;42.016;23.098;2022-08-01T08:29:02;3.95;;;2.22;;
7336;SDS011;54510;42.016;23.098;2022-08-01T08:31:28;6.15;;;2.35;;
7336;SDS011;54510;42.016;23.098;2022-08-01T08:33:53;5.15;;;2.70;;
7336;SDS011;54510;42.016;23.098;2022-08-01T08:36:19;4.25;;;2.50;;
7336;SDS011;54510;42.016;23.098;2022-08-01T08:38:44;7.20;;;2.88;;
7336;SDS011;54510;42.016;23.098;2022-08-01T08:41:10;6.45;;;2.47;;
7336;SDS011;54510;42.016;23.098;2022-08-01T08:43:35;4.90;;;2.55;;
7336;SDS011;54510;42.016;23.098;2022-08-01T08:46:01;7.88;;;3.30;;
7336;SDS011;54510;42.016;23.098;2022-08-01T08:48:27;6.93;;;2.60;;
7336;SDS011;54510;42.016;23.098;2022-08-01T08:50:53;3.75;;;2.13;;
7336;SDS011;54510;42.016;23.098;2022-08-01T08:53:20;4.97;;;2.47;;
7336;SDS011;54510;42.016;23.098;2022-08-01T08:55:47;7.70;;;3.05;;
7336;SDS011;54510;42.016;23.098;2022-08-01T08:58:13;4.45;;;2.78;;
7336;SDS011;54510;42.016;23.098;2022-08-01T09:00:42;5.90;;;2.47;;
7336;SDS011;54510;42.016;23.098;2022-08-01T09:03:08;5.32;;;2.42;;
7336;SDS011;54510;42.016;23.098;2022-08-01T09:05:33;7.03;;;2.58;;
7336;SDS011;54510;42.016;23.098;2022-08-01T09:07:59;7.00;;;4.40;;
7336;SDS011;54510;42.016;23.098;2022-08-01T09:10:24;3.75;;;2.38;;
7336;SDS011;54510;42.016;23.098;2022-08-01T09:15:52;6.10;;;2.20;;
7336;SDS011;54510;42.016;23.098;2022-08-01T09:23:34;5.90;;;2.40;;
7336;SDS011;54510;42.016;23.098;2022-08-01T09:26:10;4.05;;;2.42;;
7336;SDS011;54510;42.016;23.098;2022-08-01T09:28:38;4.18;;;2.28;;
7336;SDS011;54510;42.016;23.098;2022-08-01T09:31:22;4.72;;;2.03;;
7336;SDS011;54510;42.016;23.098;2022-08-01T09:33:57;7.40;;;2.35;;
7336;SDS011;54510;42.016;23.098;2022-08-01T09:36:26;4.65;;;2.30;;
7336;SDS011;54510;42.016;23.098;2022-08-01T09:39:11;5.30;;;2.47;;
7336;SDS011;54510;42.016;23.098;2022-08-01T09:41:38;4.10;;;1.88;;
7336;SDS011;54510;42.016;23.098;2022-08-01T09:44:04;5.50;;;2.80;;
7336;SDS011;54510;42.016;23.098;2022-08-01T09:46:30;5.15;;;1.85;;
7336;SDS011;54510;42.016;23.098;2022-08-01T09:49:02;3.65;;;2.25;;
7336;SDS011;54510;42.016;23.098;2022-08-01T09:53:55;3.70;;;1.58;;
7336;SDS011;54510;42.016;23.098;2022-08-01T09:56:21;4.25;;;1.92;;
7336;SDS011;54510;42.016;23.098;2022-08-01T09:58:54;2.50;;;2.00;;
7336;SDS011;54510;42.016;23.098;2022-08-01T10:01:21;4.43;;;2.50;;
7336;SDS011;54510;42.016;23.098;2022-08-01T10:03:47;4.05;;;2.10;;
7336;SDS011;54510;42.016;23.098;2022-08-01T10:06:35;5.05;;;2.28;;
7336;SDS011;54510;42.016;23.098;2022-08-01T10:09:02;4.28;;;2.20;;
7336;SDS011;54510;42.016;23.098;2022-08-01T10:11:28;3.47;;;2.28;;
7336;SDS011;54510;42.016;23.098;2022-08-01T10:13:54;4.57;;;2.20;;
7336;SDS011;54510;42.016;23.098;2022-08-01T10:16:21;4.72;;;2.72;;
7336;SDS011;54510;42.016;23.098;2022-08-01T10:18:46;4.03;;;2.08;;
7336;SDS011;54510;42.016;23.098;2022-08-01T10:21:12;5.65;;;2.10;;
7336;SDS011;54510;42.016;23.098;2022-08-01T10:23:38;4.80;;;2.00;;
7336;SDS011;54510;42.016;23.098;2022-08-01T10:26:07;4.60;;;2.35;;
7336;SDS011;54510;42.016;23.098;2022-08-01T10:28:35;3.92;;;2.38;;
7336;SDS011;54510;42.016;23.098;2022-08-01T10:31:02;2.78;;;2.08;;
7336;SDS011;54510;42.016;23.098;2022-08-01T10:33:28;6.60;;;5.95;;
7336;SDS011;54510;42.016;23.098;2022-08-01T10:35:55;3.33;;;2.40;;
7336;SDS011;54510;42.016;23.098;2022-08-01T10:38:22;4.57;;;3.60;;
7336;SDS011;54510;42.016;23.098;2022-08-01T10:40:48;3.50;;;2.00;;
7336;SDS011;54510;42.016;23.098;2022-08-01T10:43:16;4.32;;;2.97;;
7336;SDS011;54510;42.016;23.098;2022-08-01T10:45:42;10.57;;;7.70;;
7336;SDS011;54510;42.016;23.098;2022-08-01T10:55:46;3.83;;;2.28;;
7336;SDS011;54510;42.016;23.098;2022-08-01T10:58:25;3.13;;;2.15;;
7336;SDS011;54510;42.016;23.098;2022-08-01T11:06:23;3.05;;;1.65;;
7336;SDS011;54510;42.016;23.098;2022-08-01T11:14:25;3.05;;;2.13;;
7336;SDS011;54510;42.016;23.098;2022-08-01T11:16:51;5.20;;;3.60;;
7336;SDS011;54510;42.016;23.098;2022-08-01T11:19:17;9.68;;;2.92;;
7336;SDS011;54510;42.016;23.098;2022-08-01T11:27:29;4.18;;;2.17;;
7336;SDS011;54510;42.016;23.098;2022-08-01T11:32:34;1.85;;;1.40;;
7336;SDS011;54510;42.016;23.098;2022-08-01T11:35:21;3.30;;;1.95;;
7336;SDS011;54510;42.016;23.098;2022-08-01T11:37:48;4.65;;;1.73;;
7336;SDS011;54510;42.016;23.098;2022-08-01T11:42:41;3.42;;;1.70;;
7336;SDS011;54510;42.016;23.098;2022-08-01T11:45:07;2.58;;;1.80;;
7336;SDS011;54510;42.016;23.098;2022-08-01T11:47:46;3.83;;;1.73;;
7336;SDS011;54510;42.016;23.098;2022-08-01T11:53:12;3.42;;;1.67;;
7336;SDS011;54510;42.016;23.098;2022-08-01T11:55:43;4.43;;;2.05;;
7336;SDS011;54510;42.016;23.098;2022-08-01T11:58:12;2.40;;;1.90;;
7336;SDS011;54510;42.016;23.098;2022-08-01T12:00:37;9.32;;;8.27;;
7336;SDS011;54510;42.016;23.098;2022-08-01T12:03:03;7.03;;;5.40;;
7336;SDS011;54510;42.016;23.098;2022-08-01T12:05:31;8.07;;;5.82;;
7336;SDS011;54510;42.016;23.098;2022-08-01T12:07:59;3.70;;;2.00;;
7336;SDS011;54510;42.016;23.098;2022-08-01T12:10:28;5.65;;;2.05;;
7336;SDS011;54510;42.016;23.098;2022-08-01T12:13:01;3.53;;;2.17;;
7336;SDS011;54510;42.016;23.098;2022-08-01T12:15:30;3.15;;;2.00;;
7336;SDS011;54510;42.016;23.098;2022-08-01T12:18:01;3.67;;;2.08;;
7336;SDS011;54510;42.016;23.098;2022-08-01T12:20:33;4.20;;;1.70;;
7336;SDS011;54510;42.016;23.098;2022-08-01T12:23:01;3.95;;;1.50;;
7336;SDS011;54510;42.016;23.098;2022-08-01T12:25:27;5.30;;;1.70;;
7336;SDS011;54510;42.016;23.098;2022-08-01T12:27:53;2.15;;;1.52;;
7336;SDS011;54510;42.016;23.098;2022-08-01T12:30:20;2.22;;;1.67;;
7336;SDS011;54510;42.016;23.098;2022-08-01T12:32:53;2.35;;;1.33;;
7336;SDS011;54510;42.016;23.098;2022-08-01T12:35:23;2.38;;;1.83;;
7336;SDS011;54510;42.016;23.098;2022-08-01T12:37:51;3.15;;;1.80;;
7336;SDS011;54510;42.016;23.098;2022-08-01T12:42:59;3.08;;;2.00;;
7336;SDS011;54510;42.016;23.098;2022-08-01T12:45:38;5.43;;;1.95;;
7336;SDS011;54510;42.016;23.098;2022-08-01T12:48:13;2.78;;;1.75;;
7336;SDS011;54510;42.016;23.098;2022-08-01T12:50:44;2.60;;;1.60;;
7336;SDS011;54510;42.016;23.098;2022-08-01T12:53:11;7.88;;;2.00;;
7336;SDS011;54510;42.016;23.098;2022-08-01T12:55:46;2.17;;;1.50;;
7336;SDS011;54510;42.016;23.098;2022-08-01T12:58:13;2.90;;;1.50;;
7336;SDS011;54510;42.016;23.098;2022-08-01T13:00:40;3.47;;;1.60;;
7336;SDS011;54510;42.016;23.098;2022-08-01T13:03:13;5.63;;;2.20;;
7336;SDS011;54510;42.016;23.098;2022-08-01T13:05:53;3.67;;;1.60;;
7336;SDS011;54510;42.016;23.098;2022-08-01T13:08:22;2.83;;;1.70;;
7336;SDS011;54510;42.016;23.098;2022-08-01T13:10:47;1.58;;;1.25;;
7336;SDS011;54510;42.016;23.098;2022-08-01T13:13:15;4.35;;;2.40;;
7336;SDS011;54510;42.016;23.098;2022-08-01T13:15:42;4.78;;;2.05;;
7336;SDS011;54510;42.016;23.098;2022-08-01T13:18:27;3.63;;;1.55;;
7336;SDS011;54510;42.016;23.098;2022-08-01T13:21:13;3.17;;;1.33;;
7336;SDS011;54510;42.016;23.098;2022-08-01T13:26:38;2.72;;;1.70;;
7336;SDS011;54510;42.016;23.098;2022-08-01T13:29:05;3.95;;;1.80;;
7336;SDS011;54510;42.016;23.098;2022-08-01T13:31:33;2.28;;;1.30;;
7336;SDS011;54510;42.016;23.098;2022-08-01T13:33:59;1.88;;;1.30;;
7336;SDS011;54510;42.016;23.098;2022-08-01T13:36:24;4.07;;;1.80;;
7336;SDS011;54510;42.016;23.098;2022-08-01T13:38:52;1.63;;;1.50;;
7336;SDS011;54510;42.016;23.098;2022-08-01T13:41:36;4.38;;;1.52;;
7336;SDS011;54510;42.016;23.098;2022-08-01T13:44:01;3.95;;;1.60;;
7336;SDS011;54510;42.016;23.098;2022-08-01T13:46:26;3.22;;;1.60;;
7336;SDS011;54510;42.016;23.098;2022-08-01T13:48:52;5.25;;;1.52;;
7336;SDS011;54510;42.016;23.098;2022-08-01T13:51:17;2.25;;;1.55;;
7336;SDS011;54510;42.016;23.098;2022-08-01T13:53:43;2.50;;;1.67;;
7336;SDS011;54510;42.016;23.098;2022-08-01T13:56:08;3.83;;;1.70;;
7336;SDS011;54510;42.016;23.098;2022-08-01T13:58:34;2.55;;;1.52;;
7336;SDS011;54510;42.016;23.098;2022-08-01T14:00:59;5.28;;;4.72;;
7336;SDS011;54510;42.016;23.098;2022-08-01T14:03:25;3.80;;;2.40;;
7336;SDS011;54510;42.016;23.098;2022-08-01T14:05:50;6.03;;;2.22;;
7336;SDS011;54510;42.016;23.098;2022-08-01T14:08:16;4.38;;;1.75;;
7336;SDS011;54510;42.016;23.098;2022-08-01T14:10:41;3.28;;;1.70;;
7336;SDS011;54510;42.016;23.098;2022-08-01T14:13:07;3.05;;;1.92;;
7336;SDS011;54510;42.016;23.098;2022-08-01T14:15:32;4.40;;;1.90;;
7336;SDS011;54510;42.016;23.098;2022-08-01T14:17:58;4.05;;;2.15;;
7336;SDS011;54510;42.016;23.098;2022-08-01T14:20:24;2.53;;;1.90;;
7336;SDS011;54510;42.016;23.098;2022-08-01T14:22:49;2.53;;;1.73;;
7336;SDS011;54510;42.016;23.098;2022-08-01T14:25:14;3.15;;;2.55;;
7336;SDS011;54510;42.016;23.098;2022-08-01T14:27:40;2.88;;;1.88;;
7336;SDS011;54510;42.016;23.098;2022-08-01T14:30:07;2.75;;;2.03;;
7336;SDS011;54510;42.016;23.098;2022-08-01T14:32:33;3.83;;;2.17;;
7336;SDS011;54510;42.016;23.098;2022-08-01T14:35:00;4.13;;;1.83;;
7336;SDS011;54510;42.016;23.098;2022-08-01T14:37:29;4.28;;;2.00;;
7336;SDS011;54510;42.016;23.098;2022-08-01T14:39:55;5.18;;;2.22;;
7336;SDS011;54510;42.016;23.098;2022-08-01T14:42:21;2.83;;;2.05;;
7336;SDS011;54510;42.016;23.098;2022-08-01T14:44:47;7.65;;;2.35;;
7336;SDS011;54510;42.016;23.098;2022-08-01T14:47:12;3.03;;;2.05;;
7336;SDS011;54510;42.016;23.098;2022-08-01T14:49:38;3.38;;;1.98;;
7336;SDS011;54510;42.016;23.098;2022-08-01T14:52:03;2.60;;;2.05;;
7336;SDS011;54510;42.016;23.098;2022-08-01T14:54:29;3.45;;;2.20;;
7336;SDS011;54510;42.016;23.098;2022-08-01T14:56:54;2.17;;;1.98;;
7336;SDS011;54510;42.016;23.098;2022-08-01T14:59:20;7.20;;;3.30;;
7336;SDS011;54510;42.016;23.098;2022-08-01T15:01:45;3.58;;;2.42;;
7336;SDS011;54510;42.016;23.098;2022-08-01T15:04:11;4.45;;;2.50;;
7336;SDS011;54510;42.016;23.098;2022-08-01T15:06:36;6.85;;;2.17;;
7336;SDS011;54510;42.016;23.098;2022-08-01T15:09:02;3.17;;;1.98;;
7336;SDS011;54510;42.016;23.098;2022-08-01T15:11:28;5.47;;;3.20;;
7336;SDS011;54510;42.016;23.098;2022-08-01T15:13:53;5.47;;;2.08;;
7336;SDS011;54510;42.016;23.098;2022-08-01T15:16:37;5.57;;;1.83;;
7336;SDS011;54510;42.016;23.098;2022-08-01T15:19:03;4.50;;;3.67;;
7336;SDS011;54510;42.016;23.098;2022-08-01T15:21:28;1.88;;;1.63;;
7336;SDS011;54510;42.016;23.098;2022-08-01T15:23:54;2.60;;;1.80;;
7336;SDS011;54510;42.016;23.098;2022-08-01T15:26:20;4.53;;;2.05;;
7336;SDS011;54510;42.016;23.098;2022-08-01T15:28:45;2.65;;;1.90;;
7336;SDS011;54510;42.016;23.098;2022-08-01T15:31:11;4.13;;;2.00;;
7336;SDS011;54510;42.016;23.098;2022-08-01T15:33:36;2.72;;;1.80;;
7336;SDS011;54510;42.016;23.098;2022-08-01T15:36:02;4.43;;;2.22;;
7336;SDS011;54510;42.016;23.098;2022-08-01T15:38:27;2.35;;;1.65;;
7336;SDS011;54510;42.016;23.098;2022-08-01T15:40:53;2.45;;;1.63;;
7336;SDS011;54510;42.016;23.098;2022-08-01T15:43:18;2.85;;;1.38;;
7336;SDS011;54510;42.016;23.098;2022-08-01T15:45:43;1.70;;;1.40;;
7336;SDS011;54510;42.016;23.098;2022-08-01T15:48:09;1.95;;;1.60;;
7336;SDS011;54510;42.016;23.098;2022-08-01T15:50:35;1.80;;;1.25;;
7336;SDS011;54510;42.016;23.098;2022-08-01T15:53:03;3.00;;;1.65;;